Stations météo

réclame
Mon MeteoGroup
Wasserkuppe, Allemagne (10544): Température de l'air & dewpoint: 15.01.2019 17:00:00 - 21.01.2019 17:00:00 (CET)Wasserkuppe, Allemagne (10544): Température de l'air 5cm & Température de l'air -5cm: 15.01.2019 17:00:00 - 21.01.2019 17:00:00 (CET)Wasserkuppe, Allemagne (10544): Température de l'air -20cm & Température de l'air -100cm: 15.01.2019 17:00:00 - 21.01.2019 17:00:00 (CET)Wasserkuppe, Allemagne (10544): Vitesse du vent & gusts: 15.01.2019 17:00:00 - 21.01.2019 17:00:00 (CET)Wasserkuppe, Allemagne (10544): Direction du vent: 15.01.2019 17:00:00 - 21.01.2019 17:00:00 (CET)Wasserkuppe, Allemagne (10544): visibility: 15.01.2019 17:00:00 - 21.01.2019 17:00:00 (CET)Wasserkuppe, Allemagne (10544): Ensoleillement: 15.01.2019 17:00:00 - 21.01.2019 17:00:00 (CET)Wasserkuppe, Allemagne (10544): Quantités de précipitations: 15.01.2019 17:00:00 - 21.01.2019 17:00:00 (CET)
Date & Time tt [°C] td [°C] tt 5cm [°C] tt -5cm [°C] tt -20cm [°C] tt -100cm [°C] ff [km/h] ff [knt] fx [km/h] fx [knt] dd vv [km] sd [min] rr [mm]
21.01.2019 17:00:00 -7,8 -9,4 -10,0 0,3 1,1 2,9 8 4 16 8 W 16 45 0,0
21.01.2019 16:00:00 -5,6 -8,9 -8,8 0,3 1,1 2,9 8 4 11 6 WNW 18 60 0,0
21.01.2019 15:00:00 -3,8 -8,6 -6,7 0,3 1,1 2,9 7 4 10 5 W 15 60 0,0
21.01.2019 14:00:00 -3,6 -8,7 -7,1 0,3 1,1 2,9 5 3 8 4 SSW 15 60 0,0
21.01.2019 13:00:00 -4,6 -6,3 -8,9 0,3 1,1 2,9 4 2 13 7 SSW 10 60 0,0
21.01.2019 12:00:00 -7,3 -8,7 -8,7 0,3 1,1 2,9 9 5 16 9 S 10 20 0,0
21.01.2019 11:00:00 -7,7 -9,1 -8,0 0,3 1,1 2,9 7 4 22 12 SE 7 3 0,0
21.01.2019 10:00:00 -8,8 -9,9 -8,8 0,3 1,1 2,9 14 8 24 13 SSE 7 0 0,0
21.01.2019 09:00:00 -9,1 -10,1 -9,2 0,3 1,1 2,9 16 9 22 12 SSE 6 0 0,0
21.01.2019 08:00:00 -9,1 -10,1 -9,3 0,3 1,1 2,9 16 9 26 14 SSE 5 0 0,0
21.01.2019 07:00:00 -8,9 -9,8 -9,0 0,3 1,1 2,9 17 9 25 13 SE 7 0 0,0
21.01.2019 06:00:00 -8,9 -9,8 -8,9 0,3 1,1 3,0 18 10 34 18 SE 1,1 0 0,0
21.01.2019 05:00:00 -8,9 -9,8 -8,9 0,3 1,1 2,9 26 14 35 19 SE 0,8 0 0,0
21.01.2019 04:00:00 -9,0 -9,9 -9,0 0,3 1,1 3,0 23 12 32 17 SE 0,6 0 0,0
21.01.2019 03:00:00 -9,2 -10,1 -9,1 0,3 1,1 2,9 16 9 24 13 SE 0,8 0 0,0
21.01.2019 02:00:00 -9,1 -9,9 -9,1 0,3 1,1 3,0 18 10 27 14 SE 0,4 0 0,0
21.01.2019 01:00:00 -9,1 -9,9 -9,4 0,3 1,1 3,0 21 11 31 17 SSE 4,0 0 0,0
21.01.2019 00:00:00 -9,2 -10,1 -9,4 0,3 1,1 3,0 21 11 29 16 SE 4,0 0 0,0
20.01.2019 23:00:00 -9,3 -10,2 -10,1 0,3 1,1 3,0 19 10 27 15 SSE 3,0 0 0,0
20.01.2019 22:00:00 -9,3 -10,0 -10,5 0,3 1,1 3,0 13 7 25 13 SSE 5 0 0,0
20.01.2019 21:00:00 -9,7 -10,6 -11,6 0,3 1,1 3,0 19 11 24 13 SE 6 0 0,0
20.01.2019 20:00:00 -8,7 -10,9 -13,6 0,3 1,1 3,0 15 8 21 11 ESE 25 0 0,0
20.01.2019 19:00:00 -7,5 -10,1 -11,0 0,3 1,1 3,0 16 8 20 11 E 30 0 0,0
20.01.2019 18:00:00 -6,8 -10,2 -10,4 0,3 1,1 3,0 13 7 20 11 ENE 35 0 0,0
20.01.2019 17:00:00 -6,6 -10,6 -11,2 0,3 1,1 3,0 13 7 16 9 ENE 40 46 0,0
20.01.2019 16:00:00 -5,9 -10,8 -8,9 0,3 1,1 3,0 11 6 21 11 E 45 59 0,0
20.01.2019 15:00:00 -5,3 -11,2 -5,9 0,3 1,1 3,0 14 8 26 14 E 45 60 0,0
20.01.2019 14:00:00 -4,9 -10,4 -7,2 0,3 1,1 3,0 16 9 25 14 ESE 45 60 0,0
20.01.2019 13:00:00 -5,7 -10,5 -9,1 0,3 1,1 3,0 15 8 26 14 E 40 60 0,0
20.01.2019 12:00:00 -5,7 -9,9 -8,0 0,3 1,1 3,0 20 11 27 14 ESE 35 60 0,0
20.01.2019 11:00:00 -6,4 -10,0 -9,2 0,3 1,1 3,0 21 11 31 17 ESE 25 60 0,0
20.01.2019 10:00:00 -7,7 -9,6 -9,6 0,3 1,1 3,0 22 12 33 18 ESE 20 58 0,0
20.01.2019 09:00:00 -9,1 -10,5 -10,3 0,3 1,1 3,0 21 11 31 17 SE 20 31 0,0
20.01.2019 08:00:00 -8,6 -10,0 -10,2 0,3 1,1 3,0 27 15 34 18 ESE 25 0 0,0
20.01.2019 07:00:00 -8,5 -10,0 -9,9 0,3 1,1 3,0 28 15 34 19 ESE 25 0 0,0
20.01.2019 06:00:00 -9,0 -10,2 -10,1 0,3 1,1 3,0 30 16 35 19 ESE 20 0 0,0
20.01.2019 05:00:00 -9,1 -10,4 -10,1 0,3 1,1 3,0 29 16 36 19 SE 20 0 0,0
20.01.2019 04:00:00 -9,6 -11,1 -11,0 0,4 1,1 3,0 29 16 36 19 SE 30 0 0,0
20.01.2019 03:00:00 -9,8 -11,4 -10,8 0,3 1,1 3,0 31 17 39 21 SE 35 0 0,0
20.01.2019 02:00:00 -9,6 -11,4 -11,1 0,3 1,1 3,0 31 17 37 20 ESE 40 0 0,0
20.01.2019 01:00:00 -9,4 -11,4 -10,7 0,4 1,1 3,0 34 18 42 23 ESE 40 0 0,0
20.01.2019 00:00:00 -9,1 -11,5 -10,4 0,3 1,1 3,0 36 20 47 25 ESE 45 0 0,0
19.01.2019 23:00:00 -8,5 -11,6 -9,5 0,3 1,1 3,0 36 20 60 33 SE 70 0 0,0
19.01.2019 22:00:00 -7,9 -11,8 -8,9 0,3 1,1 3,0 47 25 56 31 SE 82 0 0,0
19.01.2019 21:00:00 -7,1 -12,3 -8,4 0,3 1,1 3,0 43 23 52 28 ESE 82 0 0,0
19.01.2019 20:00:00 -6,8 -12,5 -8,4 0,3 1,1 3,0 36 19 44 24 ESE 82 0 0,0
19.01.2019 19:00:00 -6,3 -13,8 -7,9 0,3 1,1 3,0 30 16 43 23 ESE 82 0 0,0
19.01.2019 18:00:00 -6,5 -14,0 -8,2 0,3 1,1 3,0 32 18 39 21 ESE 82 0 0,0
19.01.2019 17:00:00 -6,4 -13,6 -8,2 0,4 1,1 3,0 27 15 36 19 ESE 82 24 0,0
19.01.2019 16:00:00 -6,3 -14,0 -8,1 0,3 1,1 3,0 29 15 34 18 ESE 82 45 0,0
19.01.2019 15:00:00 -4,2 -13,9 -6,1 0,3 1,1 3,0 23 12 33 18 SE 82 60 0,0
19.01.2019 14:00:00 -3,1 -13,5 -5,2 0,3 1,1 3,0 27 15 36 19 SE 82 60 0,0
19.01.2019 13:00:00 -2,6 -11,4 -6,9 0,3 1,1 3,0 26 14 31 17 SE 82 60 0,0
19.01.2019 12:00:00 -4,3 -10,7 -5,3 0,4 1,1 3,0 19 10 29 16 SSE 82 59 0,0
19.01.2019 11:00:00 -5,6 -12,3 -7,9 0,4 1,1 3,0 25 14 30 16 SSE 82 60 0,0
19.01.2019 10:00:00 -6,5 -11,5 -9,5 0,4 1,1 3,0 21 11 34 18 SSE 82 51 0,0
19.01.2019 09:00:00 -8,4 -12,8 -9,4 0,4 1,1 3,0 28 15 34 18 SE 82 10 0,0
19.01.2019 08:00:00 -8,6 -14,0 -10,6 0,4 1,1 3,0 19 10 35 19 SE 80 0 0,0
19.01.2019 07:00:00 -8,1 -16,1 -9,2 0,4 1,1 3,0 27 15 - - SE 60 0 0,0
19.01.2019 06:00:00 -8,1 -15,4 -9,9 0,4 1,1 3,0 22 12 32 17 SE 60 0 0,0
19.01.2019 05:00:00 -8,6 -14,6 -10,2 0,4 1,1 3,0 23 12 29 16 SE 60 0 0,0
19.01.2019 04:00:00 -8,8 -15,1 -12,0 0,4 1,1 3,0 21 12 32 17 SE 60 0 0,0
19.01.2019 03:00:00 -7,7 -15,8 -10,7 0,4 1,1 3,0 19 10 24 13 ESE 60 0 0,0
19.01.2019 02:00:00 -8,1 -14,9 -11,0 0,4 1,1 3,0 20 11 24 13 E 60 0 0,0
19.01.2019 01:00:00 -8,7 -14,3 -11,6 0,4 1,1 3,0 15 8 21 11 ESE 60 0 0,0
19.01.2019 00:00:00 -8,2 -12,8 -10,7 0,4 1,1 3,0 12 6 19 11 E 60 0 0,0
18.01.2019 23:00:00 -8,5 -10,1 -10,5 0,4 1,1 3,0 17 9 20 11 ESE 60 0 0,0
18.01.2019 22:00:00 -9,5 -11,1 -12,2 0,4 1,1 3,0 6 3 10 5 SE 60 0 0,0
18.01.2019 21:00:00 -9,5 -11,1 -11,5 0,4 1,1 3,0 2 1 6 3 N 60 0 0,0
18.01.2019 20:00:00 -9,8 -11,4 -11,7 0,4 1,1 3,0 5 3 6 3 S 55 0 0,0
18.01.2019 19:00:00 -9,3 -10,8 -11,5 0,4 1,1 3,0 4 2 7 4 WSW 55 0 0,0
18.01.2019 18:00:00 -8,5 -9,7 -11,0 0,4 1,1 3,0 5 3 8 5 SW 50 0 0,0
18.01.2019 17:00:00 -7,4 -9,1 -10,1 0,4 1,1 3,0 6 3 8 5 WSW 50 36 0,0
18.01.2019 16:00:00 -4,8 -6,9 -7,8 0,4 1,1 3,0 7 4 14 7 WSW 50 59 0,0
18.01.2019 15:00:00 -3,0 -5,8 -5,0 0,4 1,1 3,0 9 5 11 6 WNW 50 60 0,0
18.01.2019 14:00:00 -1,9 -3,6 -5,4 0,4 1,1 3,0 6 4 11 6 WSW 60 60 0,0
18.01.2019 13:00:00 -2,3 -3,2 -6,9 0,4 1,1 3,0 4 2 13 7 W 45 60 0,0
18.01.2019 12:00:00 -3,6 -4,5 -5,7 0,4 1,1 3,0 10 5 26 14 NW 45 60 0,0
18.01.2019 11:00:00 -4,5 -5,2 -7,3 0,4 1,1 3,0 20 11 26 14 N 40 60 0,0
18.01.2019 10:00:00 -6,0 -6,7 -7,7 0,4 1,1 3,0 19 10 27 14 N 45 59 0,0
18.01.2019 09:00:00 -6,8 -7,6 -7,7 0,4 1,1 3,0 24 13 32 18 N 6 23 0,0
18.01.2019 08:00:00 -6,5 -7,3 -7,3 0,4 1,1 3,0 29 16 41 22 NNW 9 0 0,0
18.01.2019 07:00:00 -5,2 -5,7 -5,2 0,4 1,1 3,0 32 18 49 26 NNW 0,8 0 0,2
18.01.2019 06:00:00 -4,8 -5,3 -4,9 0,4 1,1 3,0 30 16 50 27 NNW 0,7 0 0,1
18.01.2019 05:00:00 -4,6 -5,0 -4,6 0,4 1,1 3,0 27 14 43 23 NW 0,1 0 1,3
18.01.2019 04:00:00 -4,5 -4,9 -4,5 0,4 1,1 3,0 13 7 36 19 WNW 0,1 0 0,1
18.01.2019 03:00:00 -4,4 -4,8 -4,4 0,4 1,1 3,0 16 8 38 20 W 0,1 0 0,0
18.01.2019 02:00:00 -4,0 -4,4 -4,0 0,4 1,1 3,0 23 12 46 25 NW 0,1 0 0,1
18.01.2019 01:00:00 -3,9 -4,2 -3,9 0,4 1,1 3,0 28 15 45 24 W 0,1 0 0,5
18.01.2019 00:00:00 -3,8 -4,1 -3,8 0,4 1,1 3,0 29 16 48 26 W 0,1 0 0,8
17.01.2019 23:00:00 -3,7 -4,0 -3,7 0,4 1,1 3,0 25 13 43 23 W 0,1 0 0,0
17.01.2019 22:00:00 -3,7 -4,0 -3,7 0,4 1,1 3,0 23 13 46 25 W 0,1 0 1,3
17.01.2019 21:00:00 -2,7 -2,9 -2,7 0,4 1,1 3,0 28 15 47 25 W 0,2 0 0,1
17.01.2019 20:00:00 -2,4 -2,5 -2,4 0,4 1,1 3,0 24 13 49 27 W 0,5 0 0,0
17.01.2019 19:00:00 -2,1 -2,2 -2,1 0,4 1,1 3,0 26 14 47 25 W 0,1 0 0,0
17.01.2019 18:00:00 -1,6 -1,6 -1,7 0,4 1,1 3,0 25 13 57 31 WNW 0,1 0 1,0
17.01.2019 17:00:00 -0,9 -0,9 -1,0 0,4 1,0 3,0 38 21 70 38 WSW 0,1 0 1,0
17.01.2019 16:00:00 -0,3 -0,3 -0,3 0,4 1,0 3,0 49 26 74 40 WSW 0,2 0 0,5
17.01.2019 15:00:00 -0,2 -0,2 -0,1 0,4 1,0 3,0 46 25 69 37 SW 0,3 0 0,1
17.01.2019 14:00:00 -0,1 -0,1 0,1 0,4 1,0 3,0 46 25 62 33 WSW 0,2 0 0,0
17.01.2019 13:00:00 -0,2 -0,2 0,1 0,4 1,0 3,0 39 21 62 34 WSW 0,2 0 0,0
17.01.2019 12:00:00 0,0 0,0 0,1 0,4 1,0 3,0 37 20 51 28 WSW 0,1 0 0,0
17.01.2019 11:00:00 0,0 0,0 0,0 0,4 1,0 3,0 34 18 48 26 WSW 0,1 0 0,2
17.01.2019 10:00:00 -0,1 -0,1 0,0 0,4 1,0 3,0 31 17 50 27 WSW 0,1 0 0,5
17.01.2019 09:00:00 -0,3 -0,3 -0,3 0,4 1,0 3,0 38 21 53 28 WSW 0,1 0 2,3
17.01.2019 08:00:00 -0,3 -0,3 -0,3 0,4 1,0 3,0 42 23 54 29 WSW 0,1 0 1,5
17.01.2019 07:00:00 -0,6 -0,6 -0,6 0,4 1,0 3,0 40 22 57 31 SW 0,1 0 0,9
17.01.2019 06:00:00 -0,7 -0,7 -0,7 0,4 1,0 3,0 46 25 62 33 SW 0,1 0 0,5
17.01.2019 05:00:00 -0,7 -0,7 -0,7 0,4 1,0 3,0 47 25 66 36 SW 0,1 0 0,3
17.01.2019 04:00:00 -0,9 -0,9 -0,9 0,4 1,0 3,0 47 26 68 37 SW 0,2 0 0,0
17.01.2019 03:00:00 -1,3 -1,4 -1,3 0,4 1,0 3,0 45 25 76 41 WSW 9 0 0,0
17.01.2019 02:00:00 -1,1 -1,1 -1,2 0,4 1,0 3,0 55 30 92 50 WSW 0,7 0 0,0
17.01.2019 01:00:00 -1,0 -1,2 -1,0 0,4 1,0 3,0 74 40 103 56 WSW 9 0 0,0
17.01.2019 00:00:00 -1,5 -1,8 -1,6 0,4 1,0 3,0 55 30 73 39 SW 25 0 0,0
16.01.2019 23:00:00 -1,9 -2,3 -2,0 0,4 1,0 3,0 51 28 72 39 SW 35 0 0,0
16.01.2019 22:00:00 -1,8 -2,2 -2,1 0,4 1,0 3,0 45 24 66 35 SW 35 0 0,0
16.01.2019 21:00:00 -1,7 -2,1 -2,0 0,4 1,0 3,0 41 22 60 33 SW 35 0 0,0
16.01.2019 20:00:00 -1,7 -2,0 -1,9 0,4 1,0 3,0 37 20 51 27 SW 35 0 0,0
16.01.2019 19:00:00 -1,8 -2,1 -2,3 0,4 1,0 3,0 42 23 51 28 SSW 30 0 0,0
16.01.2019 18:00:00 -2,4 -2,7 -3,5 0,4 1,0 3,0 38 20 49 26 SSW 20 0 0,0
16.01.2019 17:00:00 -2,2 -2,4 -2,8 0,4 1,0 3,0 32 18 52 28 SSW 12 0 0,0
16.01.2019 16:00:00 -2,0 -2,1 -2,0 0,4 1,0 3,0 42 23 51 27 SSW 2,5 0 0,0
16.01.2019 15:00:00 -1,9 -2,1 -1,8 0,4 1,0 3,0 32 17 50 27 SW 0,5 0 0,0
16.01.2019 14:00:00 -1,8 -2,0 -1,8 0,4 1,0 3,0 41 22 51 28 SW 0,4 0 0,0
16.01.2019 13:00:00 -1,7 -1,9 -1,7 0,3 1,0 3,0 34 18 49 26 SW 0,2 0 0,0
16.01.2019 12:00:00 -1,7 -1,8 -1,6 0,4 1,0 3,0 37 20 49 27 SW 0,3 0 0,1
16.01.2019 11:00:00 -1,5 -1,5 -1,6 0,3 1,0 3,0 40 21 50 27 WSW 0,2 0 0,0
16.01.2019 10:00:00 -1,2 -1,2 -1,2 0,3 1,0 3,0 34 18 47 26 WSW 0,1 0 0,0
16.01.2019 09:00:00 -1,0 -1,0 -1,0 0,3 1,0 3,0 37 20 47 26 WSW 0,1 0 0,0
16.01.2019 08:00:00 -0,8 -0,8 -0,8 0,3 1,0 3,0 35 19 50 27 WSW 0,1 0 0,0
16.01.2019 07:00:00 -0,6 -0,6 -0,6 0,3 1,0 3,0 37 20 50 27 WSW 0,1 0 0,1
16.01.2019 06:00:00 -0,6 -0,6 -0,5 0,3 1,0 3,0 36 20 52 28 WSW 0,1 0 0,1
16.01.2019 05:00:00 -0,6 -0,6 -0,6 0,3 1,0 3,0 33 18 48 26 WSW 0,1 0 0,2
16.01.2019 04:00:00 -0,6 -0,6 -0,6 0,3 1,0 3,1 34 18 48 26 WSW 0,1 0 0,0
16.01.2019 03:00:00 -0,6 -0,6 -0,6 0,3 1,0 3,1 29 15 47 26 W 0,1 0 0,0
16.01.2019 02:00:00 -0,5 -0,5 -0,5 0,3 1,0 3,1 33 18 55 30 W 0,1 0 0,0
16.01.2019 01:00:00 -0,4 -0,4 -0,3 0,3 1,0 3,1 30 16 52 28 WSW 0,1 0 0,4
16.01.2019 00:00:00 -0,4 -0,4 -0,3 0,3 1,0 3,1 32 17 50 27 W 0,1 0 0,1
15.01.2019 23:00:00 -0,6 -0,6 -0,5 0,3 1,0 3,1 31 17 50 27 W 0,1 0 0,0
15.01.2019 22:00:00 -0,6 -0,6 -0,6 0,3 1,0 3,1 35 19 51 27 W 0,1 0 0,2
15.01.2019 21:00:00 -0,7 -0,7 -0,7 0,3 1,0 3,1 33 18 50 27 W 0,1 0 0,3
15.01.2019 20:00:00 -0,7 -0,7 -0,7 0,3 1,0 3,1 36 19 53 29 W 0,1 0 0,3
15.01.2019 19:00:00 -0,7 -0,7 -0,8 0,3 1,0 3,1 32 17 54 29 W 0,1 0 0,0
15.01.2019 18:00:00 -0,8 -0,8 -0,8 0,3 1,0 3,1 34 19 51 28 W 0,1 0 0,0
15.01.2019 17:00:00 -1,0 -1,0 -1,0 0,3 1,0 3,1 33 18 52 28 W 0,1 0 0,0

tt = Température de l'air
td = dewpoint
tt 5cm = Température de l'air 5cm
tt -5cm = Température de l'air -5cm
tt -20cm = Température de l'air -20cm
tt -100cm = Température de l'air -100cm
ff = Vitesse du vent
fx = gusts
dd = Direction du vent
vv = visibility
sd = Ensoleillement
rr = Quantités de précipitations

stations d'obs. à proximité